sensor_id;sensor_type;location;lat;lon;timestamp;pressure;altitude;pressure_sealevel;temperature;humidity
71476;BME280;59286;59.274;17.974;2023-11-21T00:00:52;101501.06;;;-0.09;100.00
71476;BME280;59286;59.274;17.974;2023-11-21T00:03:17;101521.06;;;0.02;100.00
71476;BME280;59286;59.274;17.974;2023-11-21T00:05:44;101520.88;;;0.04;100.00
71476;BME280;59286;59.274;17.974;2023-11-21T00:08:09;101517.72;;;0.02;100.00
71476;BME280;59286;59.274;17.974;2023-11-21T00:10:35;101521.25;;;0.00;100.00
71476;BME280;59286;59.274;17.974;2023-11-21T00:13:03;101524.81;;;0.06;100.00
71476;BME280;59286;59.274;17.974;2023-11-21T00:15:28;101528.56;;;0.10;100.00
71476;BME280;59286;59.274;17.974;2023-11-21T00:17:54;101514.50;;;0.06;100.00
71476;BME280;59286;59.274;17.974;2023-11-21T00:20:19;101526.00;;;0.10;100.00
71476;BME280;59286;59.274;17.974;2023-11-21T00:22:45;101531.53;;;0.14;100.00
71476;BME280;59286;59.274;17.974;2023-11-21T00:25:10;101524.81;;;0.13;100.00
71476;BME280;59286;59.274;17.974;2023-11-21T00:27:36;101528.56;;;0.17;100.00
71476;BME280;59286;59.274;17.974;2023-11-21T00:30:02;101540.44;;;0.24;100.00
71476;BME280;59286;59.274;17.974;2023-11-21T00:32:29;101538.06;;;0.23;100.00
71476;BME280;59286;59.274;17.974;2023-11-21T00:34:54;101545.59;;;0.24;100.00
71476;BME280;59286;59.274;17.974;2023-11-21T00:37:20;101545.03;;;0.22;100.00
71476;BME280;59286;59.274;17.974;2023-11-21T00:39:45;101541.22;;;0.25;100.00
71476;BME280;59286;59.274;17.974;2023-11-21T00:42:11;101544.22;;;0.22;100.00
71476;BME280;59286;59.274;17.974;2023-11-21T00:44:38;101547.19;;;0.25;100.00
71476;BME280;59286;59.274;17.974;2023-11-21T00:47:03;101547.19;;;0.25;100.00
71476;BME280;59286;59.274;17.974;2023-11-21T00:49:29;101547.56;;;0.29;100.00
71476;BME280;59286;59.274;17.974;2023-11-21T00:51:54;101544.81;;;0.24;100.00
71476;BME280;59286;59.274;17.974;2023-11-21T00:54:20;101538.84;;;0.23;100.00
71476;BME280;59286;59.274;17.974;2023-11-21T00:56:45;101546.00;;;0.28;100.00
71476;BME280;59286;59.274;17.974;2023-11-21T00:59:12;101546.38;;;0.25;100.00
71476;BME280;59286;59.274;17.974;2023-11-21T01:01:38;101545.94;;;0.34;100.00
71476;BME280;59286;59.274;17.974;2023-11-21T01:04:03;101556.06;;;0.36;100.00
71476;BME280;59286;59.274;17.974;2023-11-21T01:06:28;101557.25;;;0.40;100.00
71476;BME280;59286;59.274;17.974;2023-11-21T01:08:55;101549.50;;;0.40;100.00
71476;BME280;59286;59.274;17.974;2023-11-21T01:11:20;101551.09;;;0.41;100.00
71476;BME280;59286;59.274;17.974;2023-11-21T01:13:46;101549.88;;;0.43;100.00
71476;BME280;59286;59.274;17.974;2023-11-21T01:16:11;101558.00;;;0.47;100.00
71476;BME280;59286;59.274;17.974;2023-11-21T01:18:37;101538.25;;;0.28;100.00
71476;BME280;59286;59.274;17.974;2023-11-21T01:21:02;101568.53;;;0.52;100.00
71476;BME280;59286;59.274;17.974;2023-11-21T01:23:28;101566.53;;;0.54;100.00
71476;BME280;59286;59.274;17.974;2023-11-21T01:25:55;101570.69;;;0.55;100.00
71476;BME280;59286;59.274;17.974;2023-11-21T01:28:21;101563.38;;;0.52;100.00
71476;BME280;59286;59.274;17.974;2023-11-21T01:30:46;101580.19;;;0.61;100.00
71476;BME280;59286;59.274;17.974;2023-11-21T01:33:12;101568.84;;;0.62;100.00
71476;BME280;59286;59.274;17.974;2023-11-21T01:35:37;101579.81;;;0.57;100.00
71476;BME280;59286;59.274;17.974;2023-11-21T01:38:02;101577.59;;;0.61;100.00
71476;BME280;59286;59.274;17.974;2023-11-21T01:40:29;101574.66;;;0.57;100.00
71476;BME280;59286;59.274;17.974;2023-11-21T01:42:55;101585.13;;;0.62;100.00
71476;BME280;59286;59.274;17.974;2023-11-21T01:45:21;101583.94;;;0.58;100.00
71476;BME280;59286;59.274;17.974;2023-11-21T01:47:46;101579.59;;;0.59;100.00
71476;BME280;59286;59.274;17.974;2023-11-21T01:50:14;101585.19;;;0.56;100.00
71476;BME280;59286;59.274;17.974;2023-11-21T01:52:43;101581.22;;;0.47;100.00
71476;BME280;59286;59.274;17.974;2023-11-21T01:55:09;101580.44;;;0.46;100.00
71476;BME280;59286;59.274;17.974;2023-11-21T01:57:35;101590.53;;;0.48;100.00
71476;BME280;59286;59.274;17.974;2023-11-21T02:00:03;101591.72;;;0.52;100.00
71476;BME280;59286;59.274;17.974;2023-11-21T02:02:44;101598.25;;;0.54;100.00
71476;BME280;59286;59.274;17.974;2023-11-21T02:05:17;101603.41;;;0.54;100.00
71476;BME280;59286;59.274;17.974;2023-11-21T02:07:50;101597.09;;;0.50;100.00
71476;BME280;59286;59.274;17.974;2023-11-21T02:10:18;101599.03;;;0.55;100.00
71476;BME280;59286;59.274;17.974;2023-11-21T02:12:48;101599.03;;;0.55;100.00
71476;BME280;59286;59.274;17.974;2023-11-21T02:15:14;101598.66;;;0.51;100.00
71476;BME280;59286;59.274;17.974;2023-11-21T02:17:48;101600.28;;;0.46;100.00
71476;BME280;59286;59.274;17.974;2023-11-21T02:20:17;101614.13;;;0.51;100.00
71476;BME280;59286;59.274;17.974;2023-11-21T02:22:53;101598.28;;;0.48;100.00
71476;BME280;59286;59.274;17.974;2023-11-21T02:25:26;101606.19;;;0.53;100.00
71476;BME280;59286;59.274;17.974;2023-11-21T02:28:00;101617.09;;;0.55;100.00
71476;BME280;59286;59.274;17.974;2023-11-21T02:30:26;101623.06;;;0.55;100.00
71476;BME280;59286;59.274;17.974;2023-11-21T02:32:58;101612.94;;;0.54;100.00
71476;BME280;59286;59.274;17.974;2023-11-21T02:35:24;101616.50;;;0.53;100.00
71476;BME280;59286;59.274;17.974;2023-11-21T02:37:51;101617.69;;;0.57;100.00
71476;BME280;59286;59.274;17.974;2023-11-21T02:40:17;101621.66;;;0.53;100.00
71476;BME280;59286;59.274;17.974;2023-11-21T02:42:43;101625.03;;;0.53;100.00
71476;BME280;59286;59.274;17.974;2023-11-21T02:45:10;101625.44;;;0.57;100.00
71476;BME280;59286;59.274;17.974;2023-11-21T02:47:41;101629.63;;;0.51;100.00
71476;BME280;59286;59.274;17.974;2023-11-21T02:50:06;101617.91;;;0.49;100.00
71476;BME280;59286;59.274;17.974;2023-11-21T02:52:34;101631.59;;;0.49;100.00
71476;BME280;59286;59.274;17.974;2023-11-21T02:55:00;101635.56;;;0.52;100.00
71476;BME280;59286;59.274;17.974;2023-11-21T02:57:26;101634.19;;;0.56;100.00
71476;BME280;59286;59.274;17.974;2023-11-21T02:59:51;101639.13;;;0.51;100.00
71476;BME280;59286;59.274;17.974;2023-11-21T03:02:17;101639.72;;;0.53;100.00
71476;BME280;59286;59.274;17.974;2023-11-21T03:04:42;101650.63;;;0.55;100.00
71476;BME280;59286;59.274;17.974;2023-11-21T03:07:08;101647.47;;;0.53;100.00
71476;BME280;59286;59.274;17.974;2023-11-21T03:09:34;101659.75;;;0.51;100.00
71476;BME280;59286;59.274;17.974;2023-11-21T03:12:00;101660.34;;;0.53;100.00
71476;BME280;59286;59.274;17.974;2023-11-21T03:14:25;101660.16;;;0.61;100.00
71476;BME280;59286;59.274;17.974;2023-11-21T03:16:50;101666.88;;;0.68;100.00
71476;BME280;59286;59.274;17.974;2023-11-21T03:19:16;101674.00;;;0.73;100.00
71476;BME280;59286;59.274;17.974;2023-11-21T03:21:41;101679.75;;;0.75;100.00
71476;BME280;59286;59.274;17.974;2023-11-21T03:24:06;101672.59;;;0.83;100.00
71476;BME280;59286;59.274;17.974;2023-11-21T03:26:32;101666.47;;;0.78;100.00
71476;BME280;59286;59.274;17.974;2023-11-21T03:28:58;101675.59;;;0.74;100.00
71476;BME280;59286;59.274;17.974;2023-11-21T03:31:23;101685.91;;;0.74;100.00
71476;BME280;59286;59.274;17.974;2023-11-21T03:33:48;101681.56;;;0.68;100.00
71476;BME280;59286;59.274;17.974;2023-11-21T03:36:14;101680.38;;;0.64;100.00
71476;BME280;59286;59.274;17.974;2023-11-21T03:38:43;101697.03;;;0.74;100.00
71476;BME280;59286;59.274;17.974;2023-11-21T03:41:08;101704.16;;;0.79;100.00
71476;BME280;59286;59.274;17.974;2023-11-21T03:43:36;101699.78;;;0.79;100.00
71476;BME280;59286;59.274;17.974;2023-11-21T03:46:01;101690.28;;;0.73;100.00
71476;BME280;59286;59.274;17.974;2023-11-21T03:48:26;101703.34;;;0.78;100.00
71476;BME280;59286;59.274;17.974;2023-11-21T03:50:52;101698.41;;;0.77;100.00
71476;BME280;59286;59.274;17.974;2023-11-21T03:53:17;101706.72;;;0.85;100.00
71476;BME280;59286;59.274;17.974;2023-11-21T03:55:42;101709.31;;;0.79;100.00
71476;BME280;59286;59.274;17.974;2023-11-21T03:58:08;101711.69;;;0.80;100.00
71476;BME280;59286;59.274;17.974;2023-11-21T04:00:33;101720.59;;;0.84;100.00
71476;BME280;59286;59.274;17.974;2023-11-21T04:02:58;101721.81;;;0.82;100.00
71476;BME280;59286;59.274;17.974;2023-11-21T04:05:24;101722.38;;;0.84;100.00
71476;BME280;59286;59.274;17.974;2023-11-21T04:07:50;101718.44;;;0.81;100.00
71476;BME280;59286;59.274;17.974;2023-11-21T04:10:18;101730.53;;;0.87;100.00
71476;BME280;59286;59.274;17.974;2023-11-21T04:12:44;101716.06;;;0.80;100.00
71476;BME280;59286;59.274;17.974;2023-11-21T04:15:10;101731.91;;;0.90;100.00
71476;BME280;59286;59.274;17.974;2023-11-21T04:17:36;101711.28;;;0.83;100.00
71476;BME280;59286;59.274;17.974;2023-11-21T04:20:03;101720.00;;;0.89;100.00
71476;BME280;59286;59.274;17.974;2023-11-21T04:22:33;101721.59;;;0.90;100.00
71476;BME280;59286;59.274;17.974;2023-11-21T04:24:58;101726.16;;;0.94;100.00
71476;BME280;59286;59.274;17.974;2023-11-21T04:27:24;101724.75;;;0.92;100.00
71476;BME280;59286;59.274;17.974;2023-11-21T04:29:49;101741.00;;;0.99;100.00
71476;BME280;59286;59.274;17.974;2023-11-21T04:32:14;101731.53;;;0.93;100.00
71476;BME280;59286;59.274;17.974;2023-11-21T04:34:40;101742.59;;;1.00;100.00
71476;BME280;59286;59.274;17.974;2023-11-21T04:37:05;101733.25;;;0.99;100.00
71476;BME280;59286;59.274;17.974;2023-11-21T04:39:31;101739.41;;;1.05;100.00
71476;BME280;59286;59.274;17.974;2023-11-21T04:41:57;101755.28;;;1.15;100.00
71476;BME280;59286;59.274;17.974;2023-11-21T04:44:22;101747.16;;;1.11;100.00
71476;BME280;59286;59.274;17.974;2023-11-21T04:46:47;101759.25;;;1.17;100.00
71476;BME280;59286;59.274;17.974;2023-11-21T04:49:14;101748.13;;;1.17;100.00
71476;BME280;59286;59.274;17.974;2023-11-21T04:51:39;101760.22;;;1.16;100.00
71476;BME280;59286;59.274;17.974;2023-11-21T04:54:04;101757.88;;;1.08;100.00
71476;BME280;59286;59.274;17.974;2023-11-21T04:56:31;101760.44;;;1.15;100.00
71476;BME280;59286;59.274;17.974;2023-11-21T04:58:56;101764.41;;;1.11;100.00
71476;BME280;59286;59.274;17.974;2023-11-21T05:01:21;101758.88;;;1.07;100.00
71476;BME280;59286;59.274;17.974;2023-11-21T05:03:47;101774.34;;;1.14;100.00
71476;BME280;59286;59.274;17.974;2023-11-21T05:06:12;101760.66;;;1.07;100.00
71476;BME280;59286;59.274;17.974;2023-11-21T05:08:38;101767.78;;;1.11;100.00
71476;BME280;59286;59.274;17.974;2023-11-21T05:11:03;101773.13;;;1.16;100.00
71476;BME280;59286;59.274;17.974;2023-11-21T05:13:29;101770.38;;;1.11;100.00
71476;BME280;59286;59.274;17.974;2023-11-21T05:15:55;101782.69;;;1.09;100.00
71476;BME280;59286;59.274;17.974;2023-11-21T05:18:23;101777.56;;;1.03;100.00
71476;BME280;59286;59.274;17.974;2023-11-21T05:20:52;101785.28;;;1.09;100.00
71476;BME280;59286;59.274;17.974;2023-11-21T05:23:17;101787.44;;;1.12;100.00
71476;BME280;59286;59.274;17.974;2023-11-21T05:25:42;101781.50;;;1.12;100.00
71476;BME280;59286;59.274;17.974;2023-11-21T05:28:07;101791.03;;;1.11;100.00
71476;BME280;59286;59.274;17.974;2023-11-21T05:30:33;101786.28;;;1.08;100.00
71476;BME280;59286;59.274;17.974;2023-11-21T05:32:58;101789.03;;;1.07;100.00
71476;BME280;59286;59.274;17.974;2023-11-21T05:35:23;101793.44;;;1.06;100.00
71476;BME280;59286;59.274;17.974;2023-11-21T05:37:49;101796.00;;;1.06;100.00
71476;BME280;59286;59.274;17.974;2023-11-21T05:40:14;101797.75;;;1.12;100.00
71476;BME280;59286;59.274;17.974;2023-11-21T05:42:40;101780.34;;;0.94;100.00
71476;BME280;59286;59.274;17.974;2023-11-21T05:45:06;101804.91;;;1.10;100.00
71476;BME280;59286;59.274;17.974;2023-11-21T05:47:43;101820.81;;;1.14;100.00
71476;BME280;59286;59.274;17.974;2023-11-21T05:50:09;101817.03;;;1.16;100.00
71476;BME280;59286;59.274;17.974;2023-11-21T05:52:40;101820.59;;;1.22;100.00
71476;BME280;59286;59.274;17.974;2023-11-21T05:55:06;101824.78;;;1.23;100.00
71476;BME280;59286;59.274;17.974;2023-11-21T05:57:35;101816.81;;;1.18;100.00
71476;BME280;59286;59.274;17.974;2023-11-21T06:00:03;101820.41;;;1.17;100.00
71476;BME280;59286;59.274;17.974;2023-11-21T06:02:34;101828.72;;;1.25;100.00
71476;BME280;59286;59.274;17.974;2023-11-21T06:05:00;101830.53;;;1.25;100.00
71476;BME280;59286;59.274;17.974;2023-11-21T06:07:26;101829.94;;;1.23;100.00
71476;BME280;59286;59.274;17.974;2023-11-21T06:09:51;101821.97;;;1.24;100.00
71476;BME280;59286;59.274;17.974;2023-11-21T06:12:16;101822.78;;;1.18;100.00
71476;BME280;59286;59.274;17.974;2023-11-21T06:14:42;101829.91;;;1.29;100.00
71476;BME280;59286;59.274;17.974;2023-11-21T06:17:07;101846.19;;;1.30;100.00
71476;BME280;59286;59.274;17.974;2023-11-21T06:19:32;101837.06;;;1.27;100.00
71476;BME280;59286;59.274;17.974;2023-11-21T06:21:58;101844.03;;;1.27;100.00
71476;BME280;59286;59.274;17.974;2023-11-21T06:24:23;101850.19;;;1.32;100.00
71476;BME280;59286;59.274;17.974;2023-11-21T06:26:48;101852.16;;;1.30;100.00
71476;BME280;59286;59.274;17.974;2023-11-21T06:29:14;101858.53;;;1.28;100.00
71476;BME280;59286;59.274;17.974;2023-11-21T06:31:39;101871.22;;;1.29;100.00
71476;BME280;59286;59.274;17.974;2023-11-21T06:34:06;101868.84;;;1.28;100.00
71476;BME280;59286;59.274;17.974;2023-11-21T06:36:31;101855.34;;;1.26;100.00
71476;BME280;59286;59.274;17.974;2023-11-21T06:38:56;101873.41;;;1.32;100.00
71476;BME280;59286;59.274;17.974;2023-11-21T06:41:22;101877.78;;;1.32;100.00
71476;BME280;59286;59.274;17.974;2023-11-21T06:43:47;101880.16;;;1.33;100.00
71476;BME280;59286;59.274;17.974;2023-11-21T06:46:13;101873.41;;;1.32;100.00
71476;BME280;59286;59.274;17.974;2023-11-21T06:48:42;101875.38;;;1.37;100.00
71476;BME280;59286;59.274;17.974;2023-11-21T06:51:07;101883.31;;;1.42;100.00
71476;BME280;59286;59.274;17.974;2023-11-21T06:53:33;101885.31;;;1.40;100.00
71476;BME280;59286;59.274;17.974;2023-11-21T06:55:59;101889.88;;;1.44;100.00
71476;BME280;59286;59.274;17.974;2023-11-21T06:58:24;101899.41;;;1.50;100.00
71476;BME280;59286;59.274;17.974;2023-11-21T07:00:49;101897.78;;;1.49;100.00
71476;BME280;59286;59.274;17.974;2023-11-21T07:03:15;101899.41;;;1.50;100.00
71476;BME280;59286;59.274;17.974;2023-11-21T07:05:41;101900.38;;;1.49;100.00
71476;BME280;59286;59.274;17.974;2023-11-21T07:08:06;101918.06;;;1.46;100.00
71476;BME280;59286;59.274;17.974;2023-11-21T07:10:32;101904.00;;;1.35;100.00
71476;BME280;59286;59.274;17.974;2023-11-21T07:12:58;101914.94;;;1.37;100.00
71476;BME280;59286;59.274;17.974;2023-11-21T07:15:23;101920.50;;;1.34;100.00
71476;BME280;59286;59.274;17.974;2023-11-21T07:17:49;101918.69;;;1.35;100.00
71476;BME280;59286;59.274;17.974;2023-11-21T07:20:15;101921.09;;;1.30;100.00
71476;BME280;59286;59.274;17.974;2023-11-21T07:22:42;101921.69;;;1.32;100.00
71476;BME280;59286;59.274;17.974;2023-11-21T07:25:07;101918.91;;;1.33;100.00
71476;BME280;59286;59.274;17.974;2023-11-21T07:27:34;101925.84;;;1.39;100.00
71476;BME280;59286;59.274;17.974;2023-11-21T07:30:01;101923.66;;;1.36;100.00
71476;BME280;59286;59.274;17.974;2023-11-21T07:32:29;101935.19;;;1.34;100.00
71476;BME280;59286;59.274;17.974;2023-11-21T07:34:55;101936.00;;;1.34;100.00
71476;BME280;59286;59.274;17.974;2023-11-21T07:37:22;101931.41;;;1.36;100.00
71476;BME280;59286;59.274;17.974;2023-11-21T07:39:47;101925.47;;;1.36;100.00
71476;BME280;59286;59.274;17.974;2023-11-21T07:42:13;101932.22;;;1.43;100.00
71476;BME280;59286;59.274;17.974;2023-11-21T07:44:38;101932.38;;;1.42;100.00
71476;BME280;59286;59.274;17.974;2023-11-21T07:47:04;101936.78;;;1.41;100.00
71476;BME280;59286;59.274;17.974;2023-11-21T07:49:29;101930.84;;;1.34;100.00
71476;BME280;59286;59.274;17.974;2023-11-21T07:51:55;101946.31;;;1.34;100.00
71476;BME280;59286;59.274;17.974;2023-11-21T07:54:20;101943.13;;;1.39;100.00
71476;BME280;59286;59.274;17.974;2023-11-21T07:56:46;101939.56;;;1.33;100.00
71476;BME280;59286;59.274;17.974;2023-11-21T07:59:12;101941.56;;;1.38;100.00
71476;BME280;59286;59.274;17.974;2023-11-21T08:01:37;101937.38;;;1.30;100.00
71476;BME280;59286;59.274;17.974;2023-11-21T08:04:03;101942.75;;;1.35;100.00
71476;BME280;59286;59.274;17.974;2023-11-21T08:06:29;101941.97;;;1.28;100.00
71476;BME280;59286;59.274;17.974;2023-11-21T08:08:55;101954.88;;;1.28;100.00
71476;BME280;59286;59.274;17.974;2023-11-21T08:11:21;101961.00;;;1.27;100.00
71476;BME280;59286;59.274;17.974;2023-11-21T08:13:47;101955.84;;;1.27;100.00
71476;BME280;59286;59.274;17.974;2023-11-21T08:16:12;101958.66;;;1.32;100.00
71476;BME280;59286;59.274;17.974;2023-11-21T08:18:37;101957.84;;;1.25;100.00
71476;BME280;59286;59.274;17.974;2023-11-21T08:21:03;101963.59;;;1.27;100.00
71476;BME280;59286;59.274;17.974;2023-11-21T08:23:30;101964.41;;;1.28;100.00
71476;BME280;59286;59.274;17.974;2023-11-21T08:25:55;101970.56;;;1.33;100.00
71476;BME280;59286;59.274;17.974;2023-11-21T08:28:20;101972.94;;;1.28;100.00
71476;BME280;59286;59.274;17.974;2023-11-21T08:30:51;101976.09;;;1.24;100.00
71476;BME280;59286;59.274;17.974;2023-11-21T08:33:16;101981.06;;;1.25;100.00
71476;BME280;59286;59.274;17.974;2023-11-21T08:35:41;101977.72;;;1.25;100.00
71476;BME280;59286;59.274;17.974;2023-11-21T08:38:07;101989.03;;;1.24;100.00
71476;BME280;59286;59.274;17.974;2023-11-21T08:40:32;101985.66;;;1.30;100.00
71476;BME280;59286;59.274;17.974;2023-11-21T08:42:57;101986.44;;;1.30;100.00
71476;BME280;59286;59.274;17.974;2023-11-21T08:45:26;101991.41;;;1.25;100.00
71476;BME280;59286;59.274;17.974;2023-11-21T08:47:51;101981.88;;;1.19;100.00
71476;BME280;59286;59.274;17.974;2023-11-21T08:50:17;101996.56;;;1.25;100.00
71476;BME280;59286;59.274;17.974;2023-11-21T08:52:44;101996.38;;;1.20;100.00
71476;BME280;59286;59.274;17.974;2023-11-21T08:55:09;101997.97;;;1.21;100.00
71476;BME280;59286;59.274;17.974;2023-11-21T08:57:38;102009.88;;;1.22;100.00
71476;BME280;59286;59.274;17.974;2023-11-21T09:00:04;102005.72;;;1.21;100.00
71476;BME280;59286;59.274;17.974;2023-11-21T09:02:33;102015.66;;;1.24;100.00
71476;BME280;59286;59.274;17.974;2023-11-21T09:05:03;102017.03;;;1.20;100.00
71476;BME280;59286;59.274;17.974;2023-11-21T09:07:29;102016.84;;;1.15;100.00
71476;BME280;59286;59.274;17.974;2023-11-21T09:09:54;102022.19;;;1.20;100.00
71476;BME280;59286;59.274;17.974;2023-11-21T09:12:20;102023.19;;;1.13;100.00
71476;BME280;59286;59.274;17.974;2023-11-21T09:14:46;102021.41;;;1.13;100.00
71476;BME280;59286;59.274;17.974;2023-11-21T09:17:11;102031.72;;;1.13;100.00
71476;BME280;59286;59.274;17.974;2023-11-21T09:19:37;102019.00;;;1.05;100.00
71476;BME280;59286;59.274;17.974;2023-11-21T09:22:03;102029.72;;;1.09;100.00
71476;BME280;59286;59.274;17.974;2023-11-21T09:24:28;102029.91;;;1.07;100.00
71476;BME280;59286;59.274;17.974;2023-11-21T09:26:54;102034.88;;;1.02;100.00
71476;BME280;59286;59.274;17.974;2023-11-21T09:29:19;102032.31;;;1.02;100.00
71476;BME280;59286;59.274;17.974;2023-11-21T09:31:44;102030.94;;;1.06;100.00
71476;BME280;59286;59.274;17.974;2023-11-21T09:34:10;102032.91;;;1.04;100.00
71476;BME280;59286;59.274;17.974;2023-11-21T09:36:36;102036.88;;;1.13;100.00
71476;BME280;59286;59.274;17.974;2023-11-21T09:39:04;102041.25;;;1.13;100.00
71476;BME280;59286;59.274;17.974;2023-11-21T09:41:49;102036.28;;;1.18;100.00
71476;BME280;59286;59.274;17.974;2023-11-21T09:44:18;102042.66;;;1.15;100.00
71476;BME280;59286;59.274;17.974;2023-11-21T09:46:44;102046.44;;;1.19;100.00
71476;BME280;59286;59.274;17.974;2023-11-21T09:49:13;102047.25;;;1.26;100.00
71476;BME280;59286;59.274;17.974;2023-11-21T09:51:42;102042.47;;;1.30;100.00
71476;BME280;59286;59.274;17.974;2023-11-21T09:54:09;102044.84;;;1.44;100.00
71476;BME280;59286;59.274;17.974;2023-11-21T09:56:36;102048.81;;;1.40;100.00
71476;BME280;59286;59.274;17.974;2023-11-21T09:59:03;102047.44;;;1.44;100.00
71476;BME280;59286;59.274;17.974;2023-11-21T10:01:33;102052.41;;;1.52;100.00
71476;BME280;59286;59.274;17.974;2023-11-21T10:04:00;102046.66;;;1.50;100.00
71476;BME280;59286;59.274;17.974;2023-11-21T10:06:26;102054.38;;;1.57;100.00
71476;BME280;59286;59.274;17.974;2023-11-21T10:08:53;102054.81;;;1.47;100.00
71476;BME280;59286;59.274;17.974;2023-11-21T10:11:24;102050.03;;;1.57;100.00
71476;BME280;59286;59.274;17.974;2023-11-21T10:13:54;102061.53;;;1.68;100.00
71476;BME280;59286;59.274;17.974;2023-11-21T10:16:25;102055.00;;;1.59;100.00
71476;BME280;59286;59.274;17.974;2023-11-21T10:18:52;102070.31;;;1.60;100.00
71476;BME280;59286;59.274;17.974;2023-11-21T10:21:20;102071.91;;;1.61;100.00
71476;BME280;59286;59.274;17.974;2023-11-21T10:23:47;102057.59;;;1.52;100.00
71476;BME280;59286;59.274;17.974;2023-11-21T10:26:13;102061.38;;;1.56;100.00
71476;BME280;59286;59.274;17.974;2023-11-21T10:29:02;102064.75;;;1.63;100.00
71476;BME280;59286;59.274;17.974;2023-11-21T10:31:31;102063.94;;;1.69;100.00
71476;BME280;59286;59.274;17.974;2023-11-21T10:34:15;102062.56;;;1.60;100.00
71476;BME280;59286;59.274;17.974;2023-11-21T10:36:41;102061.56;;;1.61;100.00
71476;BME280;59286;59.274;17.974;2023-11-21T10:39:06;102060.16;;;1.52;100.00
71476;BME280;59286;59.274;17.974;2023-11-21T10:41:32;102061.97;;;1.58;100.00
71476;BME280;59286;59.274;17.974;2023-11-21T10:43:57;102073.28;;;1.64;100.00
71476;BME280;59286;59.274;17.974;2023-11-21T10:46:23;102075.28;;;1.68;100.00
71476;BME280;59286;59.274;17.974;2023-11-21T10:48:53;102081.84;;;1.58;100.00
71476;BME280;59286;59.274;17.974;2023-11-21T10:51:21;102080.22;;;1.57;100.00
71476;BME280;59286;59.274;17.974;2023-11-21T10:53:46;102083.44;;;1.65;100.00
71476;BME280;59286;59.274;17.974;2023-11-21T10:56:14;102074.69;;;1.60;100.00
71476;BME280;59286;59.274;17.974;2023-11-21T10:58:43;102077.47;;;1.58;100.00
71476;BME280;59286;59.274;17.974;2023-11-21T11:01:09;102081.44;;;1.61;100.00
71476;BME280;59286;59.274;17.974;2023-11-21T11:03:37;102079.84;;;1.66;100.00
71476;BME280;59286;59.274;17.974;2023-11-21T11:06:06;102080.63;;;1.67;100.00
71476;BME280;59286;59.274;17.974;2023-11-21T11:08:36;102092.16;;;1.64;100.00
71476;BME280;59286;59.274;17.974;2023-11-21T11:11:04;102089.38;;;1.59;100.00
71476;BME280;59286;59.274;17.974;2023-11-21T11:13:30;102084.03;;;1.67;100.00
71476;BME280;59286;59.274;17.974;2023-11-21T11:15:58;102093.34;;;1.68;100.00
71476;BME280;59286;59.274;17.974;2023-11-21T11:18:30;102095.94;;;1.68;100.00
71476;BME280;59286;59.274;17.974;2023-11-21T11:21:07;102094.16;;;1.69;100.00
71476;BME280;59286;59.274;17.974;2023-11-21T11:23:49;102091.56;;;1.62;100.00
71476;BME280;59286;59.274;17.974;2023-11-21T11:26:35;102101.72;;;1.64;100.00
71476;BME280;59286;59.274;17.974;2023-11-21T11:34:33;102100.91;;;1.57;100.00
71476;BME280;59286;59.274;17.974;2023-11-21T11:37:03;102114.81;;;1.56;100.00
71476;BME280;59286;59.274;17.974;2023-11-21T11:39:49;102113.41;;;1.53;100.00
71476;BME280;59286;59.274;17.974;2023-11-21T11:42:16;102114.03;;;1.62;100.00
71476;BME280;59286;59.274;17.974;2023-11-21T11:49:56;102127.56;;;1.77;100.00
71476;BME280;59286;59.274;17.974;2023-11-21T11:54:58;102124.97;;;1.77;100.00
71476;BME280;59286;59.274;17.974;2023-11-21T11:57:24;102129.56;;;1.75;100.00
71476;BME280;59286;59.274;17.974;2023-11-21T12:00:11;102132.13;;;1.75;100.00
71476;BME280;59286;59.274;17.974;2023-11-21T12:02:38;102138.50;;;1.72;100.00
71476;BME280;59286;59.274;17.974;2023-11-21T12:05:11;102136.47;;;1.68;100.00
71476;BME280;59286;59.274;17.974;2023-11-21T12:07:54;102140.28;;;1.72;100.00
71476;BME280;59286;59.274;17.974;2023-11-21T12:10:27;102142.25;;;1.70;100.00
71476;BME280;59286;59.274;17.974;2023-11-21T12:12:56;102137.91;;;1.64;100.00
71476;BME280;59286;59.274;17.974;2023-11-21T12:15:22;102146.81;;;1.61;100.00
71476;BME280;59286;59.274;17.974;2023-11-21T12:17:48;102144.81;;;1.50;100.00
71476;BME280;59286;59.274;17.974;2023-11-21T12:20:18;102157.34;;;1.47;100.00
71476;BME280;59286;59.274;17.974;2023-11-21T12:22:47;102148.19;;;1.44;100.00
71476;BME280;59286;59.274;17.974;2023-11-21T12:25:17;102154.72;;;1.40;100.00
71476;BME280;59286;59.274;17.974;2023-11-21T12:27:50;102159.72;;;1.48;100.00
71476;BME280;59286;59.274;17.974;2023-11-21T12:30:18;102162.91;;;1.57;100.00
71476;BME280;59286;59.274;17.974;2023-11-21T12:32:48;102163.09;;;1.55;100.00
71476;BME280;59286;59.274;17.974;2023-11-21T12:35:14;102164.91;;;1.61;100.00
71476;BME280;59286;59.274;17.974;2023-11-21T12:37:41;102159.34;;;1.64;100.00
71476;BME280;59286;59.274;17.974;2023-11-21T12:40:09;102159.94;;;1.66;100.00
71476;BME280;59286;59.274;17.974;2023-11-21T12:42:41;102165.13;;;1.66;100.00
71476;BME280;59286;59.274;17.974;2023-11-21T12:45:27;102162.53;;;1.60;100.00
71476;BME280;59286;59.274;17.974;2023-11-21T12:48:02;102167.31;;;1.56;100.00
71476;BME280;59286;59.274;17.974;2023-11-21T12:50:33;102167.06;;;1.51;100.00
71476;BME280;59286;59.274;17.974;2023-11-21T12:53:01;102167.31;;;1.56;100.00